createdAt,value
2023-01-10T00:01:34.057Z,94065.72
2023-01-10T00:04:00.974Z,94062.50
2023-01-10T00:06:28.100Z,94062.31
2023-01-10T00:08:57.312Z,94062.75
2023-01-10T00:11:43.468Z,94068.75
2023-01-10T00:14:11.581Z,94067.31
2023-01-10T00:16:39.607Z,94067.88
2023-01-10T00:19:08.604Z,94068.16
2023-01-10T00:21:35.978Z,94069.78
2023-01-10T00:24:17.198Z,94074.97
2023-01-10T00:26:51.175Z,94074.97
2023-01-10T00:29:20.367Z,94081.78
2023-01-10T00:31:48.182Z,94081.19
2023-01-10T00:34:15.284Z,94087.19
2023-01-10T00:36:42.472Z,94087.19
2023-01-10T00:39:11.372Z,94089.16
2023-01-10T00:41:58.126Z,94101.19
2023-01-10T00:44:26.084Z,94103.22
2023-01-10T00:46:54.122Z,94099.78
2023-01-10T00:49:21.180Z,94108.59
2023-01-10T00:51:48.573Z,94116.03
2023-01-10T00:54:15.594Z,94122.03
2023-01-10T00:56:42.730Z,94126.47
2023-01-10T00:59:10.065Z,94134.09
2023-01-10T01:01:37.318Z,94133.72
2023-01-10T01:04:04.658Z,94143.53
2023-01-10T01:06:31.577Z,94141.13
2023-01-10T01:08:58.614Z,94151.34
2023-01-10T01:11:26.352Z,94155.13
2023-01-10T01:13:53.399Z,94160.78
2023-01-10T01:16:21.375Z,94159.94
2023-01-10T01:18:48.689Z,94165.16
2023-01-10T01:21:15.679Z,94170.22
2023-01-10T01:23:42.627Z,94173.81
2023-01-10T01:26:10.978Z,94177.22
2023-01-10T01:28:38.623Z,94186.00
2023-01-10T01:31:09.813Z,94184.59
2023-01-10T01:33:37.898Z,94187.03
2023-01-10T01:36:10.900Z,94198.06
2023-01-10T01:38:39.530Z,94201.66
2023-01-10T01:41:27.386Z,94201.66
2023-01-10T01:44:15.303Z,94199.03
2023-01-10T01:46:45.725Z,94203.25
2023-01-10T01:49:22.283Z,94209.47
2023-01-10T01:51:57.954Z,94204.44
2023-01-10T01:54:26.920Z,94213.25
2023-01-10T01:57:00.993Z,94211.63
2023-01-10T01:59:37.823Z,94214.25
2023-01-10T02:02:17.638Z,94224.22
2023-01-10T02:05:09.516Z,94225.25
2023-01-10T02:07:39.375Z,94219.00
2023-01-10T02:10:26.086Z,94231.44
2023-01-10T02:12:56.305Z,94230.44
2023-01-10T02:15:23.498Z,94234.84
2023-01-10T02:17:53.264Z,94231.88
2023-01-10T02:20:22.688Z,94239.06
2023-01-10T02:23:08.773Z,94241.47
2023-01-10T02:26:08.905Z,94244.47
2023-01-10T02:29:03.456Z,94243.47
2023-01-10T02:32:42.022Z,94254.25
2023-01-10T02:36:09.015Z,94260.25
2023-01-10T02:38:43.840Z,94258.47
2023-01-10T02:41:26.684Z,94254.69
2023-01-10T02:44:09.499Z,94253.72
2023-01-10T02:46:39.062Z,94245.91
2023-01-10T02:49:06.244Z,94254.69
2023-01-10T02:51:33.655Z,94268.53
2023-01-10T02:54:08.439Z,94259.72
2023-01-10T02:56:47.737Z,94275.34
2023-01-10T02:59:44.655Z,94266.75
2023-01-10T03:03:03.003Z,94273.56
2023-01-10T03:06:29.015Z,94285.16
2023-01-10T03:09:47.645Z,94283.38
2023-01-10T03:12:37.880Z,94289.75
2023-01-10T03:15:07.109Z,94292.16
2023-01-10T03:17:35.025Z,94292.78
2023-01-10T03:20:07.328Z,94298.19
2023-01-10T03:22:38.220Z,94298.34
2023-01-10T03:25:10.191Z,94305.38
2023-01-10T03:27:54.261Z,94301.34
2023-01-10T03:30:33.246Z,94312.94
2023-01-10T03:33:00.804Z,94311.13
2023-01-10T03:36:00.945Z,94313.94
2023-01-10T03:38:56.219Z,94314.81
2023-01-10T03:41:35.093Z,94310.78
2023-01-10T03:44:39.114Z,94317.34
2023-01-10T03:47:31.147Z,94336.94
2023-01-10T03:50:05.132Z,94335.31
2023-01-10T03:52:34.824Z,94339.53
2023-01-10T03:55:03.413Z,94345.53
2023-01-10T03:57:30.280Z,94350.13
2023-01-10T03:59:58.984Z,94352.56
2023-01-10T04:02:29.348Z,94369.00
2023-01-10T04:04:57.073Z,94362.53
2023-01-10T04:07:24.189Z,94369.34
2023-01-10T04:09:51.518Z,94369.34
2023-01-10T04:12:18.647Z,94368.34
2023-01-10T04:14:47.197Z,94373.56
2023-01-10T04:17:16.060Z,94373.41
2023-01-10T04:19:43.239Z,94377.44
2023-01-10T04:22:11.455Z,94370.63
2023-01-10T04:24:38.965Z,94374.84
2023-01-10T04:27:06.137Z,94383.44
2023-01-10T04:29:33.183Z,94383.44
2023-01-10T04:32:01.148Z,94384.28
2023-01-10T04:34:28.260Z,94389.47
2023-01-10T04:36:55.793Z,94392.88
2023-01-10T04:39:23.790Z,94405.56
2023-01-10T04:41:50.738Z,94423.25
2023-01-10T04:44:17.922Z,94411.84
2023-01-10T04:46:45.569Z,94419.13
2023-01-10T04:49:12.770Z,94425.31
2023-01-10T04:51:40.702Z,94426.75
2023-01-10T04:54:07.795Z,94433.41
2023-01-10T04:56:35.123Z,94444.66
2023-01-10T04:59:02.263Z,94449.50
2023-01-10T05:01:29.447Z,94443.81
2023-01-10T05:03:57.085Z,94447.44
2023-01-10T05:06:25.374Z,94465.94
2023-01-10T05:08:53.350Z,94464.84
2023-01-10T05:11:20.500Z,94471.69
2023-01-10T05:13:48.287Z,94481.94
2023-01-10T05:16:16.115Z,94488.13
2023-01-10T05:18:43.658Z,94489.75
2023-01-10T05:21:13.706Z,94498.38
2023-01-10T05:23:40.999Z,94498.53
2023-01-10T05:26:17.781Z,94507.38
2023-01-10T05:28:45.128Z,94503.94
2023-01-10T05:31:15.185Z,94523.16
2023-01-10T05:33:50.517Z,94523.81
2023-01-10T05:36:19.043Z,94528.03
2023-01-10T05:38:46.557Z,94532.78
2023-01-10T05:41:13.660Z,94532.13
2023-01-10T05:43:40.639Z,94540.13
2023-01-10T05:46:07.805Z,94537.34
2023-01-10T05:48:35.077Z,94540.94
2023-01-10T05:51:02.337Z,94553.16
2023-01-10T05:53:29.625Z,94552.97
2023-01-10T05:56:01.885Z,94558.19
2023-01-10T05:58:29.745Z,94566.38
2023-01-10T06:00:58.311Z,94571.22
2023-01-10T06:03:26.719Z,94565.22
2023-01-10T06:05:55.277Z,94572.56
2023-01-10T06:08:23.181Z,94575.97
2023-01-10T06:10:50.745Z,94576.16
2023-01-10T06:13:18.074Z,94589.38
2023-01-10T06:15:45.267Z,94590.16
2023-01-10T06:18:12.731Z,94587.38
2023-01-10T06:20:43.909Z,94597.97
2023-01-10T06:23:10.901Z,94603.84
2023-01-10T06:25:40.785Z,94603.00
2023-01-10T06:28:09.698Z,94608.84
2023-01-10T06:30:37.330Z,94621.69
2023-01-10T06:33:07.576Z,94624.97
2023-01-10T06:35:36.212Z,94634.59
2023-01-10T06:38:03.960Z,94636.34
2023-01-10T06:40:31.056Z,94651.19
2023-01-10T06:42:59.187Z,94656.03
2023-01-10T06:45:26.428Z,94678.50
2023-01-10T06:47:53.700Z,94657.66
2023-01-10T06:50:20.653Z,94663.06
2023-01-10T06:53:01.289Z,94664.03
2023-01-10T06:55:28.901Z,94669.25
2023-01-10T06:58:05.074Z,94676.28
2023-01-10T07:00:32.382Z,94682.47
2023-01-10T07:03:00.239Z,94678.88
2023-01-10T07:05:27.486Z,94689.28
2023-01-10T07:07:54.428Z,94689.13
2023-01-10T07:10:21.644Z,94689.28
2023-01-10T07:12:48.548Z,94695.47
2023-01-10T07:15:15.998Z,94704.75
2023-01-10T07:17:42.917Z,94710.63
2023-01-10T07:20:11.069Z,94704.75
2023-01-10T07:22:38.318Z,94709.13
2023-01-10T07:25:06.123Z,94708.97
2023-01-10T07:27:33.688Z,94719.56
2023-01-10T07:30:01.374Z,94718.44
2023-01-10T07:32:28.509Z,94727.50
2023-01-10T07:34:55.397Z,94728.31
2023-01-10T07:37:22.412Z,94737.09
2023-01-10T07:39:49.767Z,94739.72
2023-01-10T07:42:16.932Z,94739.56
2023-01-10T07:44:43.977Z,94744.59
2023-01-10T07:47:11.113Z,94759.25
2023-01-10T07:49:38.172Z,94759.72
2023-01-10T07:52:07.795Z,94772.94
2023-01-10T07:54:36.065Z,94765.63
2023-01-10T07:57:03.327Z,94778.16
2023-01-10T07:59:30.260Z,94790.34
2023-01-10T08:01:57.538Z,94785.97
2023-01-10T08:04:24.586Z,94787.25
2023-01-10T08:06:54.596Z,94790.66
2023-01-10T08:09:21.621Z,94794.56
2023-01-10T08:11:48.528Z,94803.53
2023-01-10T08:14:16.319Z,94806.94
2023-01-10T08:16:43.201Z,94807.59
2023-01-10T08:19:12.430Z,94816.03
2023-01-10T08:21:39.619Z,94807.41
2023-01-10T08:24:07.044Z,94824.69
2023-01-10T08:26:34.205Z,94813.41
2023-01-10T08:29:01.702Z,94814.06
2023-01-10T08:31:28.804Z,94822.53
2023-01-10T08:33:56.780Z,94835.22
2023-01-10T08:36:24.270Z,94836.22
2023-01-10T08:38:53.365Z,94846.13
2023-01-10T08:41:20.432Z,94838.94
2023-01-10T08:43:50.648Z,94849.06
2023-01-10T08:46:20.127Z,94857.34
2023-01-10T08:48:48.549Z,94854.38
2023-01-10T08:51:16.099Z,94868.69
2023-01-10T08:53:43.286Z,94854.53
2023-01-10T08:56:11.358Z,94862.16
2023-01-10T08:58:38.934Z,94862.16
2023-01-10T09:01:08.182Z,94872.78
2023-01-10T09:03:35.565Z,94869.34
2023-01-10T09:06:02.997Z,94872.44
2023-01-10T09:08:29.939Z,94881.88
2023-01-10T09:11:02.349Z,94881.53
2023-01-10T09:13:30.007Z,94889.03
2023-01-10T09:15:59.176Z,94880.53
2023-01-10T09:18:27.136Z,94887.22
2023-01-10T09:20:54.596Z,94905.13
2023-01-10T09:23:23.641Z,94895.19
2023-01-10T09:25:54.630Z,94903.34
2023-01-10T09:28:26.672Z,94910.66
2023-01-10T09:30:53.733Z,94913.63
2023-01-10T09:33:20.855Z,94906.78
2023-01-10T09:35:48.160Z,94916.84
2023-01-10T09:38:19.069Z,94919.13
2023-01-10T09:41:08.606Z,94918.63
2023-01-10T09:44:06.207Z,94924.81
2023-01-10T09:47:21.630Z,94940.28
2023-01-10T09:50:25.251Z,94933.75
2023-01-10T09:53:29.459Z,94943.03
2023-01-10T09:55:59.969Z,94951.97
2023-01-10T09:58:31.172Z,94958.63
2023-01-10T10:01:07.193Z,94946.25
2023-01-10T10:03:54.381Z,94941.69
2023-01-10T10:06:23.550Z,94954.53
2023-01-10T10:08:52.211Z,94957.63
2023-01-10T10:11:45.223Z,94963.34
2023-01-10T10:14:24.738Z,94950.94
2023-01-10T10:17:06.907Z,94958.97
2023-01-10T10:20:11.088Z,94974.94
2023-01-10T10:22:46.660Z,94962.88
2023-01-10T10:25:45.800Z,94981.81
2023-01-10T10:28:53.583Z,94959.09
2023-01-10T10:31:53.993Z,94971.06
2023-01-10T10:34:37.472Z,94969.56
2023-01-10T10:37:17.406Z,94969.97
2023-01-10T10:40:01.569Z,94980.56
2023-01-10T10:42:36.439Z,94978.34
2023-01-10T10:45:47.956Z,94968.38
2023-01-10T10:48:24.069Z,94977.16
2023-01-10T10:51:02.168Z,94974.53
2023-01-10T10:53:32.109Z,94981.22
2023-01-10T10:56:00.444Z,94984.28
2023-01-10T10:58:30.826Z,94991.94
2023-01-10T11:01:00.711Z,94982.13
2023-01-10T11:03:45.643Z,94989.19
2023-01-10T11:06:14.921Z,94985.91
2023-01-10T11:08:45.765Z,94982.50
2023-01-10T11:11:30.261Z,94988.19
2023-01-10T11:14:01.297Z,94992.25
2023-01-10T11:16:39.009Z,94991.38
2023-01-10T11:19:14.583Z,94991.84
2023-01-10T11:21:49.964Z,94987.06
2023-01-10T11:24:44.260Z,94991.13
2023-01-10T11:27:43.772Z,94994.03
2023-01-10T11:30:28.602Z,94994.34
2023-01-10T11:33:06.144Z,94990.38
2023-01-10T11:35:37.395Z,94995.25
2023-01-10T11:38:13.417Z,95004.72
2023-01-10T11:40:58.753Z,95001.75
2023-01-10T11:43:39.549Z,94993.56
2023-01-10T11:46:16.545Z,95000.44
2023-01-10T11:49:08.030Z,94994.44
2023-01-10T11:51:52.046Z,95010.63
2023-01-10T11:54:25.799Z,95001.16
2023-01-10T11:57:08.821Z,95013.09
2023-01-10T11:59:36.125Z,95000.66
2023-01-10T12:02:27.795Z,94999.94
2023-01-10T12:04:57.162Z,95010.91
2023-01-10T12:07:24.130Z,95001.25
2023-01-10T12:10:01.231Z,95004.19
2023-01-10T12:12:31.623Z,95011.06
2023-01-10T12:15:02.476Z,95010.41
2023-01-10T12:17:36.704Z,95007.00
2023-01-10T12:20:07.044Z,95017.44
2023-01-10T12:22:45.989Z,95019.22
2023-01-10T12:25:21.412Z,95024.81
2023-01-10T12:27:51.952Z,95023.72
2023-01-10T12:30:49.899Z,95034.22
2023-01-10T12:33:27.293Z,95025.63
2023-01-10T12:36:06.898Z,95026.97
2023-01-10T12:38:58.917Z,95038.41
2023-01-10T12:42:23.286Z,95028.13
2023-01-10T12:45:03.370Z,95045.06
2023-01-10T12:47:55.863Z,95043.75
2023-01-10T12:50:41.415Z,95045.22
2023-01-10T12:53:35.728Z,95045.69
2023-01-10T12:56:07.910Z,95048.75
2023-01-10T12:58:49.224Z,95044.03
2023-01-10T13:01:21.861Z,95042.75
2023-01-10T13:03:59.337Z,95051.94
2023-01-10T13:06:39.229Z,95056.97
2023-01-10T13:09:17.108Z,95061.13
2023-01-10T13:11:57.307Z,95066.00
2023-01-10T13:15:17.684Z,95074.03
2023-01-10T13:17:59.776Z,95067.19
2023-01-10T13:20:41.978Z,95071.94
2023-01-10T13:23:33.342Z,95078.50
2023-01-10T13:26:09.295Z,95079.66
2023-01-10T13:28:40.861Z,95089.28
2023-01-10T13:31:32.896Z,95095.16
2023-01-10T13:34:13.832Z,95097.94
2023-01-10T13:37:28.894Z,95104.94
2023-01-10T13:39:59.926Z,95112.78
2023-01-10T13:42:52.325Z,95113.13
2023-01-10T13:45:29.054Z,95109.25
2023-01-10T13:47:57.182Z,95123.28
2023-01-10T13:50:24.667Z,95127.16
2023-01-10T13:52:52.067Z,95135.66
2023-01-10T13:55:40.083Z,95142.50
2023-01-10T13:58:09.689Z,95138.91
2023-01-10T14:00:55.292Z,95140.88
2023-01-10T14:03:50.677Z,95135.81
2023-01-10T14:06:30.018Z,95140.41
2023-01-10T14:09:22.146Z,95145.94
2023-01-10T14:11:55.475Z,95138.28
2023-01-10T14:14:41.617Z,95143.50
2023-01-10T14:17:24.251Z,95141.56
2023-01-10T14:20:16.275Z,95139.09
2023-01-10T14:23:03.381Z,95147.28
2023-01-10T14:25:34.222Z,95137.63
2023-01-10T14:28:02.412Z,95158.88
2023-01-10T14:30:35.273Z,95151.66
2023-01-10T14:33:15.497Z,95165.72
2023-01-10T14:35:51.146Z,95163.13
2023-01-10T14:38:31.824Z,95166.53
2023-01-10T14:41:15.668Z,95167.88
2023-01-10T14:44:13.690Z,95173.09
2023-01-10T14:46:49.338Z,95177.84
2023-01-10T14:49:23.570Z,95185.19
2023-01-10T14:51:51.702Z,95176.88
2023-01-10T14:54:23.445Z,95186.81
2023-01-10T14:56:53.440Z,95196.13
2023-01-10T14:59:30.642Z,95196.44
2023-01-10T15:02:29.936Z,95201.34
2023-01-10T15:05:07.669Z,95218.81
2023-01-10T15:07:36.150Z,95209.53
2023-01-10T15:10:24.659Z,95210.50
2023-01-10T15:12:56.539Z,95214.25
2023-01-10T15:15:35.420Z,95217.66
2023-01-10T15:18:28.172Z,95204.13
2023-01-10T15:20:57.042Z,95225.19
2023-01-10T15:23:27.505Z,95225.34
2023-01-10T15:25:58.562Z,95226.66
2023-01-10T15:28:29.948Z,95232.34
2023-01-10T15:30:58.451Z,95245.75
2023-01-10T15:33:32.876Z,95236.59
2023-01-10T15:36:17.994Z,95248.34
2023-01-10T15:38:47.930Z,95251.63
2023-01-10T15:41:22.204Z,95249.63
2023-01-10T15:43:50.726Z,95254.34
2023-01-10T15:46:24.159Z,95247.03
2023-01-10T15:49:02.753Z,95256.31
2023-01-10T15:51:41.648Z,95265.44
2023-01-10T15:54:21.624Z,95254.66
2023-01-10T15:56:53.576Z,95255.97
2023-01-10T15:59:37.040Z,95260.88
2023-01-10T16:02:33.306Z,95274.34
2023-01-10T16:05:17.919Z,95268.47
2023-01-10T16:07:47.069Z,95261.44
2023-01-10T16:10:23.001Z,95254.41
2023-01-10T16:13:08.753Z,95264.03
2023-01-10T16:15:41.883Z,95256.97
2023-01-10T16:18:08.887Z,95266.91
2023-01-10T16:20:40.255Z,95261.06
2023-01-10T16:23:24.381Z,95271.59
2023-01-10T16:25:58.835Z,95275.03
2023-01-10T16:28:29.018Z,95275.22
2023-01-10T16:30:56.007Z,95268.03
2023-01-10T16:33:27.627Z,95276.31
2023-01-10T16:35:57.535Z,95281.53
2023-01-10T16:38:27.544Z,95278.78
2023-01-10T16:41:22.016Z,95282.03
2023-01-10T16:43:50.261Z,95285.13
2023-01-10T16:46:17.843Z,95301.72
2023-01-10T16:48:47.555Z,95289.50
2023-01-10T16:51:23.476Z,95304.31
2023-01-10T16:53:51.315Z,95298.63
2023-01-10T16:56:24.826Z,95304.94
2023-01-10T16:58:53.732Z,95302.81
2023-01-10T17:01:32.006Z,95308.94
2023-01-10T17:03:59.902Z,95315.88
2023-01-10T17:06:26.821Z,95316.63
2023-01-10T17:08:53.834Z,95314.94
2023-01-10T17:11:30.511Z,95323.19
2023-01-10T17:13:59.531Z,95329.22
2023-01-10T17:16:27.299Z,95315.38
2023-01-10T17:18:54.424Z,95326.63
2023-01-10T17:21:23.624Z,95325.50
2023-01-10T17:23:51.174Z,95322.75
2023-01-10T17:26:19.855Z,95324.88
2023-01-10T17:28:49.389Z,95330.78
2023-01-10T17:31:19.502Z,95326.38
2023-01-10T17:33:48.892Z,95326.91
2023-01-10T17:36:18.909Z,95329.53
2023-01-10T17:38:46.204Z,95314.56
2023-01-10T17:41:13.451Z,95321.41
2023-01-10T17:43:40.539Z,95330.53
2023-01-10T17:46:07.893Z,95339.84
2023-01-10T17:48:35.753Z,95340.34
2023-01-10T17:51:04.166Z,95355.69
2023-01-10T17:53:31.213Z,95351.28
2023-01-10T17:56:01.000Z,95357.16
2023-01-10T17:58:30.028Z,95356.84
2023-01-10T18:00:57.151Z,95355.72
2023-01-10T18:03:24.627Z,95355.41
2023-01-10T18:05:59.187Z,95358.81
2023-01-10T18:08:27.015Z,95345.78
2023-01-10T18:11:02.183Z,95356.22
2023-01-10T18:13:32.279Z,95360.63
2023-01-10T18:16:00.765Z,95358.19
2023-01-10T18:18:28.849Z,95355.41
2023-01-10T18:20:58.241Z,95359.66
2023-01-10T18:23:26.678Z,95364.03
2023-01-10T18:26:03.799Z,95357.34
2023-01-10T18:28:41.730Z,95353.94
2023-01-10T18:31:13.296Z,95350.81
2023-01-10T18:33:40.694Z,95351.94
2023-01-10T18:36:14.741Z,95353.53
2023-01-10T18:38:42.092Z,95353.97
2023-01-10T18:41:09.458Z,95353.75
2023-01-10T18:43:39.828Z,95352.22
2023-01-10T18:46:14.276Z,95354.31
2023-01-10T18:48:41.656Z,95370.53
2023-01-10T18:51:09.988Z,95372.72
2023-01-10T18:53:37.039Z,95373.19
2023-01-10T18:56:05.564Z,95375.13
2023-01-10T18:58:36.162Z,95377.06
2023-01-10T19:01:22.183Z,95372.69
2023-01-10T19:03:50.867Z,95371.84
2023-01-10T19:06:21.561Z,95370.56
2023-01-10T19:08:54.425Z,95375.50
2023-01-10T19:11:21.579Z,95383.81
2023-01-10T19:13:52.028Z,95376.97
2023-01-10T19:16:20.376Z,95380.94
2023-01-10T19:18:53.752Z,95371.31
2023-01-10T19:21:22.079Z,95365.97
2023-01-10T19:23:57.322Z,95381.28
2023-01-10T19:26:25.140Z,95374.13
2023-01-10T19:28:53.489Z,95375.78
2023-01-10T19:31:24.829Z,95379.06
2023-01-10T19:33:53.051Z,95381.81
2023-01-10T19:36:23.025Z,95379.06
2023-01-10T19:38:55.712Z,95378.09
2023-01-10T19:41:23.765Z,95380.69
2023-01-10T19:43:56.837Z,95374.00
2023-01-10T19:46:24.675Z,95375.66
2023-01-10T19:48:52.521Z,95374.13
2023-01-10T19:51:19.522Z,95377.06
2023-01-10T19:53:47.834Z,95370.53
2023-01-10T19:56:19.709Z,95374.91
2023-01-10T19:58:47.703Z,95363.28
2023-01-10T20:01:27.669Z,95362.13
2023-01-10T20:03:58.436Z,95360.63
2023-01-10T20:06:27.654Z,95358.91
2023-01-10T20:08:55.280Z,95362.28
2023-01-10T20:11:25.372Z,95361.41
2023-01-10T20:13:53.122Z,95365.69
2023-01-10T20:16:23.134Z,95370.13
2023-01-10T20:18:51.643Z,95372.50
2023-01-10T20:21:20.005Z,95372.13
2023-01-10T20:23:47.602Z,95371.44
2023-01-10T20:26:21.288Z,95365.88
2023-01-10T20:28:50.402Z,95366.59
2023-01-10T20:31:23.392Z,95368.81
2023-01-10T20:33:51.270Z,95375.56
2023-01-10T20:36:22.442Z,95375.47
2023-01-10T20:38:50.794Z,95381.22
2023-01-10T20:41:22.880Z,95383.44
2023-01-10T20:43:50.754Z,95369.25
2023-01-10T20:46:22.260Z,95377.59
2023-01-10T20:48:50.749Z,95373.13
2023-01-10T20:51:22.782Z,95371.91
2023-01-10T20:53:51.010Z,95376.72
2023-01-10T20:56:24.872Z,95372.75
2023-01-10T20:58:53.032Z,95376.31
2023-01-10T21:01:33.211Z,95374.53
2023-01-10T21:04:02.650Z,95368.38
2023-01-10T21:06:29.858Z,95368.25
2023-01-10T21:08:56.935Z,95375.47
2023-01-10T21:11:24.321Z,95368.34
2023-01-10T21:13:51.468Z,95372.97
2023-01-10T21:16:21.872Z,95363.81
2023-01-10T21:18:49.168Z,95365.97
2023-01-10T21:21:19.708Z,95359.22
2023-01-10T21:23:46.945Z,95356.34
2023-01-10T21:26:15.401Z,95356.06
2023-01-10T21:28:48.485Z,95359.06
2023-01-10T21:31:20.198Z,95358.75
2023-01-10T21:33:49.030Z,95360.56
2023-01-10T21:36:16.848Z,95362.31
2023-01-10T21:38:45.153Z,95347.41
2023-01-10T21:41:40.496Z,95343.84
2023-01-10T21:44:08.544Z,95348.38
2023-01-10T21:46:36.334Z,95347.84
2023-01-10T21:49:04.903Z,95346.63
2023-01-10T21:51:31.955Z,95347.50
2023-01-10T21:53:59.254Z,95351.47
2023-01-10T21:56:26.293Z,95344.56
2023-01-10T21:58:53.430Z,95353.59
2023-01-10T22:01:20.396Z,95355.63
2023-01-10T22:03:47.487Z,95356.06
2023-01-10T22:06:15.284Z,95345.28
2023-01-10T22:08:42.321Z,95349.81
2023-01-10T22:11:10.943Z,95347.50
2023-01-10T22:13:38.938Z,95346.00
2023-01-10T22:16:07.102Z,95346.72
2023-01-10T22:18:34.189Z,95350.53
2023-01-10T22:21:01.497Z,95351.63
2023-01-10T22:23:31.201Z,95348.25
2023-01-10T22:26:06.861Z,95353.44
2023-01-10T22:28:34.672Z,95354.22
2023-01-10T22:31:02.887Z,95352.59
2023-01-10T22:33:32.866Z,95352.88
2023-01-10T22:36:09.008Z,95350.84
2023-01-10T22:38:36.199Z,95352.38
2023-01-10T22:41:12.781Z,95355.63
2023-01-10T22:43:39.915Z,95357.97
2023-01-10T22:46:07.487Z,95349.38
2023-01-10T22:48:38.513Z,95353.59
2023-01-10T22:51:05.831Z,95344.06
2023-01-10T22:53:33.865Z,95342.97
2023-01-10T22:56:03.489Z,95340.94
2023-01-10T22:58:30.882Z,95337.09
2023-01-10T23:00:58.026Z,95343.63
2023-01-10T23:03:25.291Z,95344.59
2023-01-10T23:05:57.278Z,95340.78
2023-01-10T23:08:25.527Z,95345.41
2023-01-10T23:10:54.182Z,95334.50
2023-01-10T23:13:23.516Z,95338.28
2023-01-10T23:16:06.265Z,95335.03
2023-01-10T23:18:34.235Z,95333.78
2023-01-10T23:21:02.060Z,95330.63
2023-01-10T23:23:31.071Z,95325.84
2023-01-10T23:26:07.327Z,95323.81
2023-01-10T23:28:47.044Z,95319.16
2023-01-10T23:31:23.148Z,95322.97
2023-01-10T23:33:51.683Z,95320.78
2023-01-10T23:36:19.261Z,95321.59
2023-01-10T23:38:46.345Z,95317.78
2023-01-10T23:41:13.392Z,95323.09
2023-01-10T23:43:40.410Z,95306.31
2023-01-10T23:46:07.850Z,95301.94
2023-01-10T23:48:35.403Z,95307.25
2023-01-10T23:51:02.391Z,95320.75
2023-01-10T23:53:29.360Z,95324.97
2023-01-10T23:55:56.797Z,95316.28
2023-01-10T23:58:23.963Z,95316.13
